sensor_id;sensor_type;location;lat;lon;timestamp;P1;durP1;ratioP1;P2;durP2;ratioP2
11018;SDS011;5563;52.296;6.806;2023-06-22T00:01:45;20.63;;;18.83;;
11018;SDS011;5563;52.296;6.806;2023-06-22T00:04:12;20.25;;;18.45;;
11018;SDS011;5563;52.296;6.806;2023-06-22T00:06:46;20.60;;;18.70;;
11018;SDS011;5563;52.296;6.806;2023-06-22T00:09:20;22.38;;;20.25;;
11018;SDS011;5563;52.296;6.806;2023-06-22T00:11:47;22.05;;;19.95;;
11018;SDS011;5563;52.296;6.806;2023-06-22T00:14:21;22.10;;;20.20;;
11018;SDS011;5563;52.296;6.806;2023-06-22T00:16:48;22.10;;;20.10;;
11018;SDS011;5563;52.296;6.806;2023-06-22T00:19:22;21.58;;;19.58;;
11018;SDS011;5563;52.296;6.806;2023-06-22T00:21:57;23.05;;;20.90;;
11018;SDS011;5563;52.296;6.806;2023-06-22T00:24:26;24.77;;;22.40;;
11018;SDS011;5563;52.296;6.806;2023-06-22T00:27:00;23.75;;;21.60;;
11018;SDS011;5563;52.296;6.806;2023-06-22T00:29:27;23.20;;;21.10;;
11018;SDS011;5563;52.296;6.806;2023-06-22T00:32:01;24.67;;;22.45;;
11018;SDS011;5563;52.296;6.806;2023-06-22T00:34:35;24.77;;;22.58;;
11018;SDS011;5563;52.296;6.806;2023-06-22T00:37:02;24.63;;;22.33;;
11018;SDS011;5563;52.296;6.806;2023-06-22T00:39:36;23.98;;;21.90;;
11018;SDS011;5563;52.296;6.806;2023-06-22T00:42:09;23.42;;;21.45;;
11018;SDS011;5563;52.296;6.806;2023-06-22T00:44:36;23.58;;;21.25;;
11018;SDS011;5563;52.296;6.806;2023-06-22T00:47:11;24.08;;;21.77;;
11018;SDS011;5563;52.296;6.806;2023-06-22T00:49:49;24.40;;;22.10;;
11018;SDS011;5563;52.296;6.806;2023-06-22T00:52:26;25.10;;;22.85;;
11018;SDS011;5563;52.296;6.806;2023-06-22T00:54:56;25.38;;;22.92;;
11018;SDS011;5563;52.296;6.806;2023-06-22T00:57:30;25.73;;;23.48;;
11018;SDS011;5563;52.296;6.806;2023-06-22T00:59:58;23.08;;;21.05;;
11018;SDS011;5563;52.296;6.806;2023-06-22T01:02:32;23.70;;;21.70;;
11018;SDS011;5563;52.296;6.806;2023-06-22T01:04:59;23.58;;;21.48;;
11018;SDS011;5563;52.296;6.806;2023-06-22T01:07:39;23.23;;;21.23;;
11018;SDS011;5563;52.296;6.806;2023-06-22T01:10:36;24.40;;;22.20;;
11018;SDS011;5563;52.296;6.806;2023-06-22T01:13:29;24.55;;;22.25;;
11018;SDS011;5563;52.296;6.806;2023-06-22T01:16:19;24.33;;;22.13;;
11018;SDS011;5563;52.296;6.806;2023-06-22T01:18:57;23.90;;;21.67;;
11018;SDS011;5563;52.296;6.806;2023-06-22T01:21:30;22.27;;;20.38;;
11018;SDS011;5563;52.296;6.806;2023-06-22T01:24:24;24.35;;;22.10;;
11018;SDS011;5563;52.296;6.806;2023-06-22T01:30:09;24.20;;;22.05;;
11018;SDS011;5563;52.296;6.806;2023-06-22T01:32:43;24.08;;;21.90;;
11018;SDS011;5563;52.296;6.806;2023-06-22T01:35:17;25.27;;;23.02;;
11018;SDS011;5563;52.296;6.806;2023-06-22T01:37:50;25.40;;;23.05;;
11018;SDS011;5563;52.296;6.806;2023-06-22T01:40:33;25.73;;;23.52;;
11018;SDS011;5563;52.296;6.806;2023-06-22T01:43:01;27.30;;;24.73;;
11018;SDS011;5563;52.296;6.806;2023-06-22T01:45:36;27.65;;;25.13;;
11018;SDS011;5563;52.296;6.806;2023-06-22T01:48:17;27.90;;;25.27;;
11018;SDS011;5563;52.296;6.806;2023-06-22T01:50:45;29.58;;;26.77;;
11018;SDS011;5563;52.296;6.806;2023-06-22T01:53:21;28.35;;;25.75;;
11018;SDS011;5563;52.296;6.806;2023-06-22T01:55:49;28.73;;;26.15;;
11018;SDS011;5563;52.296;6.806;2023-06-22T01:58:23;29.05;;;26.20;;
11018;SDS011;5563;52.296;6.806;2023-06-22T02:00:55;27.65;;;24.98;;
11018;SDS011;5563;52.296;6.806;2023-06-22T02:03:34;28.67;;;25.90;;
11018;SDS011;5563;52.296;6.806;2023-06-22T02:06:06;29.17;;;26.40;;
11018;SDS011;5563;52.296;6.806;2023-06-22T02:08:47;29.92;;;27.25;;
11018;SDS011;5563;52.296;6.806;2023-06-22T02:11:18;30.80;;;27.90;;
11018;SDS011;5563;52.296;6.806;2023-06-22T02:13:53;29.83;;;27.13;;
11018;SDS011;5563;52.296;6.806;2023-06-22T02:16:22;30.98;;;28.10;;
11018;SDS011;5563;52.296;6.806;2023-06-22T02:18:55;32.15;;;29.13;;
11018;SDS011;5563;52.296;6.806;2023-06-22T02:21:23;30.77;;;27.83;;
11018;SDS011;5563;52.296;6.806;2023-06-22T02:24:00;30.55;;;27.70;;
11018;SDS011;5563;52.296;6.806;2023-06-22T02:26:40;30.38;;;27.38;;
11018;SDS011;5563;52.296;6.806;2023-06-22T02:29:19;29.65;;;27.08;;
11018;SDS011;5563;52.296;6.806;2023-06-22T02:31:46;32.20;;;29.30;;
11018;SDS011;5563;52.296;6.806;2023-06-22T02:34:20;32.13;;;29.15;;
11018;SDS011;5563;52.296;6.806;2023-06-22T02:36:50;29.60;;;26.80;;
11018;SDS011;5563;52.296;6.806;2023-06-22T02:39:24;30.80;;;27.90;;
11018;SDS011;5563;52.296;6.806;2023-06-22T02:41:52;34.08;;;30.90;;
11018;SDS011;5563;52.296;6.806;2023-06-22T02:44:26;34.92;;;31.58;;
11018;SDS011;5563;52.296;6.806;2023-06-22T02:47:02;34.28;;;31.02;;
11018;SDS011;5563;52.296;6.806;2023-06-22T02:49:50;32.97;;;29.95;;
11018;SDS011;5563;52.296;6.806;2023-06-22T02:52:32;34.30;;;31.05;;
11018;SDS011;5563;52.296;6.806;2023-06-22T02:54:59;37.17;;;33.58;;
11018;SDS011;5563;52.296;6.806;2023-06-22T02:57:33;34.60;;;31.45;;
11018;SDS011;5563;52.296;6.806;2023-06-22T03:00:03;36.58;;;33.08;;
11018;SDS011;5563;52.296;6.806;2023-06-22T03:02:50;33.85;;;30.83;;
11018;SDS011;5563;52.296;6.806;2023-06-22T03:05:24;36.17;;;32.67;;
11018;SDS011;5563;52.296;6.806;2023-06-22T03:07:59;38.90;;;35.15;;
11018;SDS011;5563;52.296;6.806;2023-06-22T03:10:26;38.25;;;34.50;;
11018;SDS011;5563;52.296;6.806;2023-06-22T03:13:00;37.92;;;34.42;;
11018;SDS011;5563;52.296;6.806;2023-06-22T03:15:27;38.33;;;34.65;;
11018;SDS011;5563;52.296;6.806;2023-06-22T03:18:02;39.28;;;35.55;;
11018;SDS011;5563;52.296;6.806;2023-06-22T03:20:29;40.65;;;36.75;;
11018;SDS011;5563;52.296;6.806;2023-06-22T03:23:06;42.45;;;38.42;;
11018;SDS011;5563;52.296;6.806;2023-06-22T03:25:36;40.45;;;36.67;;
11018;SDS011;5563;52.296;6.806;2023-06-22T03:28:17;41.58;;;37.30;;
11018;SDS011;5563;52.296;6.806;2023-06-22T03:30:44;41.58;;;37.67;;
11018;SDS011;5563;52.296;6.806;2023-06-22T03:33:18;41.83;;;37.63;;
11018;SDS011;5563;52.296;6.806;2023-06-22T03:35:51;41.72;;;37.80;;
11018;SDS011;5563;52.296;6.806;2023-06-22T03:38:18;43.50;;;39.25;;
11018;SDS011;5563;52.296;6.806;2023-06-22T03:40:51;43.03;;;38.85;;
11018;SDS011;5563;52.296;6.806;2023-06-22T03:43:18;44.33;;;39.83;;
11018;SDS011;5563;52.296;6.806;2023-06-22T03:45:52;43.88;;;39.63;;
11018;SDS011;5563;52.296;6.806;2023-06-22T03:48:25;41.53;;;37.55;;
11018;SDS011;5563;52.296;6.806;2023-06-22T03:50:59;42.47;;;38.08;;
11018;SDS011;5563;52.296;6.806;2023-06-22T03:53:26;42.72;;;38.35;;
11018;SDS011;5563;52.296;6.806;2023-06-22T03:56:00;42.70;;;38.60;;
11018;SDS011;5563;52.296;6.806;2023-06-22T03:58:27;44.85;;;40.13;;
11018;SDS011;5563;52.296;6.806;2023-06-22T04:01:05;46.55;;;41.65;;
11018;SDS011;5563;52.296;6.806;2023-06-22T04:03:33;44.38;;;40.00;;
11018;SDS011;5563;52.296;6.806;2023-06-22T04:06:06;44.42;;;39.78;;
11018;SDS011;5563;52.296;6.806;2023-06-22T04:08:40;43.70;;;39.20;;
11018;SDS011;5563;52.296;6.806;2023-06-22T04:11:31;42.90;;;38.70;;
11018;SDS011;5563;52.296;6.806;2023-06-22T04:13:58;43.47;;;39.30;;
11018;SDS011;5563;52.296;6.806;2023-06-22T04:16:31;44.42;;;39.90;;
11018;SDS011;5563;52.296;6.806;2023-06-22T04:19:05;44.42;;;40.03;;
11018;SDS011;5563;52.296;6.806;2023-06-22T04:21:38;40.92;;;36.97;;
11018;SDS011;5563;52.296;6.806;2023-06-22T04:24:11;44.20;;;39.75;;
11018;SDS011;5563;52.296;6.806;2023-06-22T04:26:45;44.20;;;40.05;;
11018;SDS011;5563;52.296;6.806;2023-06-22T04:29:27;45.90;;;41.20;;
11018;SDS011;5563;52.296;6.806;2023-06-22T04:32:03;44.67;;;40.28;;
11018;SDS011;5563;52.296;6.806;2023-06-22T04:34:31;43.97;;;39.53;;
11018;SDS011;5563;52.296;6.806;2023-06-22T04:37:05;44.88;;;40.17;;
11018;SDS011;5563;52.296;6.806;2023-06-22T04:39:38;44.75;;;40.30;;
11018;SDS011;5563;52.296;6.806;2023-06-22T04:42:12;45.88;;;41.30;;
11018;SDS011;5563;52.296;6.806;2023-06-22T04:44:39;42.92;;;38.40;;
11018;SDS011;5563;52.296;6.806;2023-06-22T04:47:13;45.58;;;40.85;;
11018;SDS011;5563;52.296;6.806;2023-06-22T04:49:47;44.28;;;39.88;;
11018;SDS011;5563;52.296;6.806;2023-06-22T04:52:14;44.08;;;39.67;;
11018;SDS011;5563;52.296;6.806;2023-06-22T04:54:52;45.55;;;40.95;;
11018;SDS011;5563;52.296;6.806;2023-06-22T04:57:31;41.22;;;37.05;;
11018;SDS011;5563;52.296;6.806;2023-06-22T05:00:10;44.03;;;39.58;;
11018;SDS011;5563;52.296;6.806;2023-06-22T05:02:51;43.72;;;39.33;;
11018;SDS011;5563;52.296;6.806;2023-06-22T05:05:43;44.25;;;39.60;;
11018;SDS011;5563;52.296;6.806;2023-06-22T05:08:11;40.10;;;36.00;;
11018;SDS011;5563;52.296;6.806;2023-06-22T05:14:00;39.83;;;35.92;;
11018;SDS011;5563;52.296;6.806;2023-06-22T05:16:48;40.63;;;36.58;;
11018;SDS011;5563;52.296;6.806;2023-06-22T05:19:22;41.13;;;37.05;;
11018;SDS011;5563;52.296;6.806;2023-06-22T05:21:49;41.33;;;37.28;;
11018;SDS011;5563;52.296;6.806;2023-06-22T05:24:27;40.60;;;36.63;;
11018;SDS011;5563;52.296;6.806;2023-06-22T05:27:01;40.20;;;36.13;;
11018;SDS011;5563;52.296;6.806;2023-06-22T05:29:28;41.30;;;37.30;;
11018;SDS011;5563;52.296;6.806;2023-06-22T05:32:02;39.95;;;36.33;;
11018;SDS011;5563;52.296;6.806;2023-06-22T05:34:36;38.20;;;34.63;;
11018;SDS011;5563;52.296;6.806;2023-06-22T05:37:10;36.22;;;32.72;;
11018;SDS011;5563;52.296;6.806;2023-06-22T05:39:50;37.28;;;33.65;;
11018;SDS011;5563;52.296;6.806;2023-06-22T05:42:24;36.13;;;32.60;;
11018;SDS011;5563;52.296;6.806;2023-06-22T05:44:52;35.50;;;32.10;;
11018;SDS011;5563;52.296;6.806;2023-06-22T05:47:26;34.45;;;31.17;;
11018;SDS011;5563;52.296;6.806;2023-06-22T05:50:00;34.53;;;31.30;;
11018;SDS011;5563;52.296;6.806;2023-06-22T05:52:27;32.15;;;29.17;;
11018;SDS011;5563;52.296;6.806;2023-06-22T05:55:01;31.52;;;28.67;;
11018;SDS011;5563;52.296;6.806;2023-06-22T05:57:35;32.30;;;29.15;;
11018;SDS011;5563;52.296;6.806;2023-06-22T06:00:02;30.20;;;27.40;;
11018;SDS011;5563;52.296;6.806;2023-06-22T06:02:39;28.98;;;26.38;;
11018;SDS011;5563;52.296;6.806;2023-06-22T06:05:16;28.83;;;26.02;;
11018;SDS011;5563;52.296;6.806;2023-06-22T06:07:44;29.10;;;26.27;;
11018;SDS011;5563;52.296;6.806;2023-06-22T06:10:18;28.92;;;26.17;;
11018;SDS011;5563;52.296;6.806;2023-06-22T06:12:45;27.20;;;24.80;;
11018;SDS011;5563;52.296;6.806;2023-06-22T06:15:12;28.30;;;25.52;;
11018;SDS011;5563;52.296;6.806;2023-06-22T06:17:49;26.63;;;24.13;;
11018;SDS011;5563;52.296;6.806;2023-06-22T06:20:25;25.58;;;23.20;;
11018;SDS011;5563;52.296;6.806;2023-06-22T06:23:00;25.00;;;22.60;;
11018;SDS011;5563;52.296;6.806;2023-06-22T06:25:35;23.92;;;21.63;;
11018;SDS011;5563;52.296;6.806;2023-06-22T06:28:08;23.15;;;21.13;;
11018;SDS011;5563;52.296;6.806;2023-06-22T06:30:42;22.35;;;20.35;;
11018;SDS011;5563;52.296;6.806;2023-06-22T06:33:09;22.67;;;20.50;;
11018;SDS011;5563;52.296;6.806;2023-06-22T06:35:42;21.27;;;19.02;;
11018;SDS011;5563;52.296;6.806;2023-06-22T06:38:09;21.02;;;18.92;;
11018;SDS011;5563;52.296;6.806;2023-06-22T06:40:43;20.73;;;18.63;;
11018;SDS011;5563;52.296;6.806;2023-06-22T06:43:18;18.88;;;17.08;;
11018;SDS011;5563;52.296;6.806;2023-06-22T06:45:45;18.75;;;17.05;;
11018;SDS011;5563;52.296;6.806;2023-06-22T06:48:25;16.23;;;14.73;;
11018;SDS011;5563;52.296;6.806;2023-06-22T06:50:58;15.32;;;13.82;;
11018;SDS011;5563;52.296;6.806;2023-06-22T06:53:31;15.00;;;13.68;;
11018;SDS011;5563;52.296;6.806;2023-06-22T06:56:05;13.85;;;12.63;;
11018;SDS011;5563;52.296;6.806;2023-06-22T06:58:32;14.70;;;13.40;;
11018;SDS011;5563;52.296;6.806;2023-06-22T07:01:05;14.23;;;12.85;;
11018;SDS011;5563;52.296;6.806;2023-06-22T07:03:33;14.43;;;12.95;;
11018;SDS011;5563;52.296;6.806;2023-06-22T07:06:06;13.65;;;12.45;;
11018;SDS011;5563;52.296;6.806;2023-06-22T07:08:34;14.07;;;12.68;;
11018;SDS011;5563;52.296;6.806;2023-06-22T07:11:12;13.73;;;12.52;;
11018;SDS011;5563;52.296;6.806;2023-06-22T07:13:39;12.10;;;11.00;;
11018;SDS011;5563;52.296;6.806;2023-06-22T07:16:12;12.45;;;11.27;;
11018;SDS011;5563;52.296;6.806;2023-06-22T07:18:39;12.48;;;11.35;;
11018;SDS011;5563;52.296;6.806;2023-06-22T07:21:06;11.80;;;10.60;;
11018;SDS011;5563;52.296;6.806;2023-06-22T07:23:40;12.70;;;11.50;;
11018;SDS011;5563;52.296;6.806;2023-06-22T07:26:14;12.75;;;11.65;;
11018;SDS011;5563;52.296;6.806;2023-06-22T07:28:49;13.32;;;12.02;;
11018;SDS011;5563;52.296;6.806;2023-06-22T07:31:17;12.25;;;11.15;;
11018;SDS011;5563;52.296;6.806;2023-06-22T07:33:50;13.70;;;11.52;;
11018;SDS011;5563;52.296;6.806;2023-06-22T07:36:17;13.32;;;12.10;;
11018;SDS011;5563;52.296;6.806;2023-06-22T07:38:51;11.27;;;10.20;;
11018;SDS011;5563;52.296;6.806;2023-06-22T07:41:18;13.80;;;12.18;;
11018;SDS011;5563;52.296;6.806;2023-06-22T07:43:52;11.32;;;10.23;;
11018;SDS011;5563;52.296;6.806;2023-06-22T07:46:25;12.32;;;11.10;;
11018;SDS011;5563;52.296;6.806;2023-06-22T07:48:59;10.65;;;9.60;;
11018;SDS011;5563;52.296;6.806;2023-06-22T07:51:27;11.05;;;9.95;;
11018;SDS011;5563;52.296;6.806;2023-06-22T07:54:01;10.73;;;9.82;;
11018;SDS011;5563;52.296;6.806;2023-06-22T07:56:28;11.13;;;9.40;;
11018;SDS011;5563;52.296;6.806;2023-06-22T07:59:02;9.80;;;8.82;;
11018;SDS011;5563;52.296;6.806;2023-06-22T08:01:30;10.50;;;9.55;;
11018;SDS011;5563;52.296;6.806;2023-06-22T08:04:04;10.40;;;9.40;;
11018;SDS011;5563;52.296;6.806;2023-06-22T08:06:38;9.88;;;8.40;;
11018;SDS011;5563;52.296;6.806;2023-06-22T08:09:05;10.75;;;9.10;;
11018;SDS011;5563;52.296;6.806;2023-06-22T08:11:39;9.48;;;8.63;;
11018;SDS011;5563;52.296;6.806;2023-06-22T08:14:06;9.68;;;8.77;;
11018;SDS011;5563;52.296;6.806;2023-06-22T08:16:40;8.90;;;8.10;;
11018;SDS011;5563;52.296;6.806;2023-06-22T08:19:08;8.82;;;7.93;;
11018;SDS011;5563;52.296;6.806;2023-06-22T08:21:42;9.13;;;8.25;;
11018;SDS011;5563;52.296;6.806;2023-06-22T08:24:09;8.38;;;7.57;;
11018;SDS011;5563;52.296;6.806;2023-06-22T08:26:42;8.48;;;7.65;;
11018;SDS011;5563;52.296;6.806;2023-06-22T08:29:15;8.35;;;7.55;;
11018;SDS011;5563;52.296;6.806;2023-06-22T08:31:49;10.48;;;8.38;;
11018;SDS011;5563;52.296;6.806;2023-06-22T08:34:16;8.70;;;7.97;;
11018;SDS011;5563;52.296;6.806;2023-06-22T08:36:47;9.63;;;8.65;;
11018;SDS011;5563;52.296;6.806;2023-06-22T08:39:25;8.80;;;7.75;;
11018;SDS011;5563;52.296;6.806;2023-06-22T08:41:52;8.45;;;7.30;;
11018;SDS011;5563;52.296;6.806;2023-06-22T08:44:26;8.32;;;7.63;;
11018;SDS011;5563;52.296;6.806;2023-06-22T08:46:53;9.05;;;7.95;;
11018;SDS011;5563;52.296;6.806;2023-06-22T08:49:27;8.05;;;7.28;;
11018;SDS011;5563;52.296;6.806;2023-06-22T08:51:54;7.28;;;6.63;;
11018;SDS011;5563;52.296;6.806;2023-06-22T08:54:23;7.70;;;6.90;;
11018;SDS011;5563;52.296;6.806;2023-06-22T08:56:56;6.75;;;5.63;;
11018;SDS011;5563;52.296;6.806;2023-06-22T08:59:24;7.50;;;6.80;;
11018;SDS011;5563;52.296;6.806;2023-06-22T09:01:50;8.85;;;7.40;;
11018;SDS011;5563;52.296;6.806;2023-06-22T09:04:24;8.50;;;7.22;;
11018;SDS011;5563;52.296;6.806;2023-06-22T09:06:58;7.05;;;6.45;;
11018;SDS011;5563;52.296;6.806;2023-06-22T09:09:32;8.07;;;7.35;;
11018;SDS011;5563;52.296;6.806;2023-06-22T09:12:06;7.03;;;6.25;;
11018;SDS011;5563;52.296;6.806;2023-06-22T09:14:34;7.35;;;6.68;;
11018;SDS011;5563;52.296;6.806;2023-06-22T09:17:08;7.07;;;6.43;;
11018;SDS011;5563;52.296;6.806;2023-06-22T09:19:35;7.65;;;6.95;;
11018;SDS011;5563;52.296;6.806;2023-06-22T09:22:08;7.38;;;6.78;;
11018;SDS011;5563;52.296;6.806;2023-06-22T09:24:41;8.15;;;7.30;;
11018;SDS011;5563;52.296;6.806;2023-06-22T09:27:21;8.38;;;7.68;;
11018;SDS011;5563;52.296;6.806;2023-06-22T09:29:55;8.35;;;7.60;;
11018;SDS011;5563;52.296;6.806;2023-06-22T09:32:31;8.40;;;7.03;;
11018;SDS011;5563;52.296;6.806;2023-06-22T09:35:05;9.32;;;8.32;;
11018;SDS011;5563;52.296;6.806;2023-06-22T09:37:33;9.38;;;8.57;;
11018;SDS011;5563;52.296;6.806;2023-06-22T09:40:07;8.90;;;7.88;;
11018;SDS011;5563;52.296;6.806;2023-06-22T09:42:37;8.95;;;8.10;;
11018;SDS011;5563;52.296;6.806;2023-06-22T09:45:10;8.00;;;7.30;;
11018;SDS011;5563;52.296;6.806;2023-06-22T09:47:38;9.63;;;8.85;;
11018;SDS011;5563;52.296;6.806;2023-06-22T09:50:11;9.52;;;8.73;;
11018;SDS011;5563;52.296;6.806;2023-06-22T09:52:38;8.73;;;8.00;;
11018;SDS011;5563;52.296;6.806;2023-06-22T09:55:14;8.32;;;7.57;;
11018;SDS011;5563;52.296;6.806;2023-06-22T09:57:42;8.90;;;8.20;;
11018;SDS011;5563;52.296;6.806;2023-06-22T10:00:16;8.82;;;8.13;;
11018;SDS011;5563;52.296;6.806;2023-06-22T10:02:46;8.40;;;7.60;;
11018;SDS011;5563;52.296;6.806;2023-06-22T10:05:21;8.90;;;8.20;;
11018;SDS011;5563;52.296;6.806;2023-06-22T10:07:49;9.23;;;8.30;;
11018;SDS011;5563;52.296;6.806;2023-06-22T10:10:22;9.55;;;8.75;;
11018;SDS011;5563;52.296;6.806;2023-06-22T10:12:57;7.85;;;7.15;;
11018;SDS011;5563;52.296;6.806;2023-06-22T10:15:29;8.48;;;7.68;;
11018;SDS011;5563;52.296;6.806;2023-06-22T10:18:03;9.32;;;8.40;;
11018;SDS011;5563;52.296;6.806;2023-06-22T10:20:31;7.95;;;7.25;;
11018;SDS011;5563;52.296;6.806;2023-06-22T10:23:04;8.25;;;7.45;;
11018;SDS011;5563;52.296;6.806;2023-06-22T10:25:38;7.72;;;7.03;;
11018;SDS011;5563;52.296;6.806;2023-06-22T10:28:12;9.00;;;8.10;;
11018;SDS011;5563;52.296;6.806;2023-06-22T10:30:46;9.00;;;8.20;;
11018;SDS011;5563;52.296;6.806;2023-06-22T10:33:13;8.65;;;7.90;;
11018;SDS011;5563;52.296;6.806;2023-06-22T10:35:46;8.23;;;7.40;;
11018;SDS011;5563;52.296;6.806;2023-06-22T10:38:13;8.13;;;7.43;;
11018;SDS011;5563;52.296;6.806;2023-06-22T10:40:53;7.97;;;7.18;;
11018;SDS011;5563;52.296;6.806;2023-06-22T10:43:23;8.20;;;6.85;;
11018;SDS011;5563;52.296;6.806;2023-06-22T10:45:56;6.68;;;6.10;;
11018;SDS011;5563;52.296;6.806;2023-06-22T10:48:23;8.05;;;6.90;;
11018;SDS011;5563;52.296;6.806;2023-06-22T10:50:56;8.57;;;7.68;;
11018;SDS011;5563;52.296;6.806;2023-06-22T10:53:23;7.88;;;7.18;;
11018;SDS011;5563;52.296;6.806;2023-06-22T10:55:57;7.45;;;6.85;;
11018;SDS011;5563;52.296;6.806;2023-06-22T10:58:25;7.32;;;6.72;;
11018;SDS011;5563;52.296;6.806;2023-06-22T11:00:59;7.40;;;6.72;;
11018;SDS011;5563;52.296;6.806;2023-06-22T11:03:27;8.65;;;7.78;;
11018;SDS011;5563;52.296;6.806;2023-06-22T11:06:00;8.27;;;7.63;;
11018;SDS011;5563;52.296;6.806;2023-06-22T11:08:28;7.40;;;6.70;;
11018;SDS011;5563;52.296;6.806;2023-06-22T11:11:01;8.10;;;7.35;;
11018;SDS011;5563;52.296;6.806;2023-06-22T11:13:34;9.50;;;7.25;;
11018;SDS011;5563;52.296;6.806;2023-06-22T11:16:08;7.97;;;7.28;;
11018;SDS011;5563;52.296;6.806;2023-06-22T11:18:39;8.98;;;8.07;;
11018;SDS011;5563;52.296;6.806;2023-06-22T11:21:12;8.20;;;7.50;;
11018;SDS011;5563;52.296;6.806;2023-06-22T11:23:46;8.05;;;7.32;;
11018;SDS011;5563;52.296;6.806;2023-06-22T11:26:20;9.48;;;8.35;;
11018;SDS011;5563;52.296;6.806;2023-06-22T11:28:55;9.00;;;8.20;;
11018;SDS011;5563;52.296;6.806;2023-06-22T11:31:22;8.75;;;6.97;;
11018;SDS011;5563;52.296;6.806;2023-06-22T11:33:55;8.13;;;7.43;;
11018;SDS011;5563;52.296;6.806;2023-06-22T11:36:29;10.13;;;7.63;;
11018;SDS011;5563;52.296;6.806;2023-06-22T11:38:59;8.25;;;7.45;;
11018;SDS011;5563;52.296;6.806;2023-06-22T11:41:32;8.60;;;7.00;;
11018;SDS011;5563;52.296;6.806;2023-06-22T11:44:06;7.75;;;6.95;;
11018;SDS011;5563;52.296;6.806;2023-06-22T11:46:40;7.80;;;7.10;;
11018;SDS011;5563;52.296;6.806;2023-06-22T11:49:14;9.88;;;8.15;;
11018;SDS011;5563;52.296;6.806;2023-06-22T11:51:41;8.15;;;7.47;;
11018;SDS011;5563;52.296;6.806;2023-06-22T11:54:14;8.68;;;7.93;;
11018;SDS011;5563;52.296;6.806;2023-06-22T11:56:41;9.68;;;8.77;;
11018;SDS011;5563;52.296;6.806;2023-06-22T11:59:21;8.90;;;7.57;;
11018;SDS011;5563;52.296;6.806;2023-06-22T12:01:54;8.70;;;8.00;;
11018;SDS011;5563;52.296;6.806;2023-06-22T12:04:21;10.65;;;9.60;;
11018;SDS011;5563;52.296;6.806;2023-06-22T12:06:55;9.43;;;8.52;;
11018;SDS011;5563;52.296;6.806;2023-06-22T12:09:22;10.02;;;9.23;;
11018;SDS011;5563;52.296;6.806;2023-06-22T12:11:56;9.18;;;8.27;;
11018;SDS011;5563;52.296;6.806;2023-06-22T12:14:32;9.10;;;8.30;;
11018;SDS011;5563;52.296;6.806;2023-06-22T12:17:06;9.43;;;8.63;;
11018;SDS011;5563;52.296;6.806;2023-06-22T12:19:33;9.95;;;8.90;;
11018;SDS011;5563;52.296;6.806;2023-06-22T12:22:07;9.60;;;8.80;;
11018;SDS011;5563;52.296;6.806;2023-06-22T12:24:34;9.45;;;8.57;;
11018;SDS011;5563;52.296;6.806;2023-06-22T12:27:08;8.80;;;8.10;;
11018;SDS011;5563;52.296;6.806;2023-06-22T12:29:42;9.93;;;9.13;;
11018;SDS011;5563;52.296;6.806;2023-06-22T12:32:16;9.63;;;8.82;;
11018;SDS011;5563;52.296;6.806;2023-06-22T12:34:44;10.25;;;9.25;;
11018;SDS011;5563;52.296;6.806;2023-06-22T12:37:11;11.07;;;9.90;;
11018;SDS011;5563;52.296;6.806;2023-06-22T12:39:44;10.50;;;9.50;;
11018;SDS011;5563;52.296;6.806;2023-06-22T12:42:11;9.35;;;8.63;;
11018;SDS011;5563;52.296;6.806;2023-06-22T12:44:45;10.52;;;9.52;;
11018;SDS011;5563;52.296;6.806;2023-06-22T12:47:12;10.23;;;9.20;;
11018;SDS011;5563;52.296;6.806;2023-06-22T12:49:46;11.10;;;10.13;;
11018;SDS011;5563;52.296;6.806;2023-06-22T12:52:13;11.13;;;10.07;;
11018;SDS011;5563;52.296;6.806;2023-06-22T12:54:48;10.57;;;9.68;;
11018;SDS011;5563;52.296;6.806;2023-06-22T12:57:21;11.32;;;10.30;;
11018;SDS011;5563;52.296;6.806;2023-06-22T12:59:54;11.20;;;10.23;;
11018;SDS011;5563;52.296;6.806;2023-06-22T13:02:21;12.02;;;10.93;;
11018;SDS011;5563;52.296;6.806;2023-06-22T13:04:56;11.52;;;10.63;;
11018;SDS011;5563;52.296;6.806;2023-06-22T13:07:23;11.93;;;10.88;;
11018;SDS011;5563;52.296;6.806;2023-06-22T13:09:57;13.52;;;12.32;;
11018;SDS011;5563;52.296;6.806;2023-06-22T13:12:23;13.43;;;12.23;;
11018;SDS011;5563;52.296;6.806;2023-06-22T13:14:57;14.63;;;13.30;;
11018;SDS011;5563;52.296;6.806;2023-06-22T13:17:25;14.43;;;13.15;;
11018;SDS011;5563;52.296;6.806;2023-06-22T13:19:59;14.48;;;13.38;;
11018;SDS011;5563;52.296;6.806;2023-06-22T13:22:27;16.42;;;14.93;;
11018;SDS011;5563;52.296;6.806;2023-06-22T13:25:06;15.55;;;14.27;;
11018;SDS011;5563;52.296;6.806;2023-06-22T13:27:47;17.05;;;15.45;;
11018;SDS011;5563;52.296;6.806;2023-06-22T13:30:21;16.70;;;15.30;;
11018;SDS011;5563;52.296;6.806;2023-06-22T13:32:54;18.00;;;16.42;;
11018;SDS011;5563;52.296;6.806;2023-06-22T13:35:29;18.38;;;16.73;;
11018;SDS011;5563;52.296;6.806;2023-06-22T13:37:56;18.63;;;16.88;;
11018;SDS011;5563;52.296;6.806;2023-06-22T13:40:29;18.58;;;16.90;;
11018;SDS011;5563;52.296;6.806;2023-06-22T13:43:04;19.15;;;17.27;;
11018;SDS011;5563;52.296;6.806;2023-06-22T13:45:31;19.23;;;17.52;;
11018;SDS011;5563;52.296;6.806;2023-06-22T13:48:05;19.85;;;18.13;;
11018;SDS011;5563;52.296;6.806;2023-06-22T13:50:33;18.67;;;17.10;;
11018;SDS011;5563;52.296;6.806;2023-06-22T13:53:07;20.85;;;19.05;;
11018;SDS011;5563;52.296;6.806;2023-06-22T13:55:34;22.40;;;20.48;;
11018;SDS011;5563;52.296;6.806;2023-06-22T13:58:07;21.63;;;19.63;;
11018;SDS011;5563;52.296;6.806;2023-06-22T14:00:41;21.20;;;19.30;;
11018;SDS011;5563;52.296;6.806;2023-06-22T14:03:14;21.80;;;19.83;;
11018;SDS011;5563;52.296;6.806;2023-06-22T14:05:49;21.48;;;19.70;;
11018;SDS011;5563;52.296;6.806;2023-06-22T14:08:20;20.92;;;19.13;;
11018;SDS011;5563;52.296;6.806;2023-06-22T14:11:07;22.52;;;20.52;;
11018;SDS011;5563;52.296;6.806;2023-06-22T14:13:34;23.45;;;21.38;;
11018;SDS011;5563;52.296;6.806;2023-06-22T14:16:08;22.42;;;20.52;;
11018;SDS011;5563;52.296;6.806;2023-06-22T14:18:35;24.02;;;21.88;;
11018;SDS011;5563;52.296;6.806;2023-06-22T14:21:08;23.00;;;20.95;;
11018;SDS011;5563;52.296;6.806;2023-06-22T14:23:35;23.52;;;21.52;;
11018;SDS011;5563;52.296;6.806;2023-06-22T14:26:10;24.50;;;22.50;;
11018;SDS011;5563;52.296;6.806;2023-06-22T14:28:47;24.73;;;22.52;;
11018;SDS011;5563;52.296;6.806;2023-06-22T14:31:22;24.17;;;22.08;;
11018;SDS011;5563;52.296;6.806;2023-06-22T14:33:49;26.35;;;24.05;;
11018;SDS011;5563;52.296;6.806;2023-06-22T14:36:23;26.88;;;24.58;;
11018;SDS011;5563;52.296;6.806;2023-06-22T14:38:56;26.58;;;24.35;;
11018;SDS011;5563;52.296;6.806;2023-06-22T14:41:24;27.00;;;24.70;;
11018;SDS011;5563;52.296;6.806;2023-06-22T14:44:00;28.33;;;25.90;;
11018;SDS011;5563;52.296;6.806;2023-06-22T14:46:35;26.80;;;24.40;;
11018;SDS011;5563;52.296;6.806;2023-06-22T14:49:02;27.73;;;25.30;;
11018;SDS011;5563;52.296;6.806;2023-06-22T14:51:35;26.55;;;24.10;;
11018;SDS011;5563;52.296;6.806;2023-06-22T14:54:02;26.95;;;24.38;;
11018;SDS011;5563;52.296;6.806;2023-06-22T14:56:35;26.73;;;24.42;;
11018;SDS011;5563;52.296;6.806;2023-06-22T14:59:09;26.70;;;24.42;;
11018;SDS011;5563;52.296;6.806;2023-06-22T15:01:42;27.08;;;24.67;;
11018;SDS011;5563;52.296;6.806;2023-06-22T15:04:16;27.17;;;24.88;;
11018;SDS011;5563;52.296;6.806;2023-06-22T15:06:43;27.40;;;24.90;;
11018;SDS011;5563;52.296;6.806;2023-06-22T15:09:17;28.15;;;25.52;;
11018;SDS011;5563;52.296;6.806;2023-06-22T15:11:44;27.13;;;24.73;;
11018;SDS011;5563;52.296;6.806;2023-06-22T15:14:20;27.90;;;25.60;;
11018;SDS011;5563;52.296;6.806;2023-06-22T15:16:47;26.73;;;24.45;;
11018;SDS011;5563;52.296;6.806;2023-06-22T15:19:20;27.30;;;24.90;;
11018;SDS011;5563;52.296;6.806;2023-06-22T15:21:47;26.92;;;24.45;;